Time;durP1;ratioP1;P1;durP2;ratioP2;P2;SDS_P1;SDS_P2;PMS_P1;PMS_P2;Temp;Humidity;BMP_temperature;BMP_pressure;BME280_temperature;BME280_humidity;BME280_pressure;Samples;Min_cycle;Max_cycle;Signal;HPM_P1;HPM_P2
2022/06/19 00:00:27;;;;;;;6.70;4.72;;;;;;;19.10;86.35;98249.25;5089594;28;20024;-79
2022/06/19 00:02:53;;;;;;;8.80;5.13;;;;;;;19.05;86.95;98249.47;5092131;28;20140;-80
2022/06/19 00:05:18;;;;;;;9.38;5.57;;;;;;;18.97;87.02;98233.75;5088420;28;20059;-82
2022/06/19 00:07:44;;;;;;;8.57;5.15;;;;;;;18.97;87.24;98239.28;5092374;28;20035;-81
2022/06/19 00:10:10;;;;;;;5.68;4.53;;;;;;;18.83;88.19;98241.56;5097985;28;20028;-82
2022/06/19 00:12:36;;;;;;;11.13;5.32;;;;;;;18.73;89.14;98248.34;5094330;28;20032;-81
2022/06/19 00:15:03;;;;;;;9.68;4.70;;;;;;;18.70;89.63;98248.22;5092106;28;20077;-80
2022/06/19 00:17:28;;;;;;;10.02;5.05;;;;;;;18.70;89.29;98242.69;5093987;28;20366;-80
2022/06/19 00:19:54;;;;;;;6.95;4.80;;;;;;;18.75;89.68;98244.41;5093325;28;20020;-80
2022/06/19 00:22:19;;;;;;;10.27;4.80;;;;;;;18.75;89.52;98239.69;5092124;28;20020;-81
2022/06/19 00:24:45;;;;;;;6.82;4.80;;;;;;;18.57;90.42;98227.16;5093317;28;20080;-81
2022/06/19 00:27:10;;;;;;;8.20;5.40;;;;;;;18.60;91.06;98246.69;5095828;28;20085;-83
2022/06/19 00:29:36;;;;;;;8.73;5.40;;;;;;;18.55;88.84;98241.34;5095301;28;20016;-81
2022/06/19 00:32:04;;;;;;;6.47;4.90;;;;;;;18.49;88.58;98236.31;5095429;28;20028;-82
2022/06/19 00:34:31;;;;;;;7.40;4.88;;;;;;;18.43;86.88;98232.13;5093338;28;20158;-79
2022/06/19 00:36:56;;;;;;;7.05;4.65;;;;;;;18.35;86.28;98235.81;5091416;28;20024;-79
2022/06/19 00:39:21;;;;;;;7.47;4.85;;;;;;;18.23;85.19;98227.44;5092047;28;20068;-80
2022/06/19 00:41:47;;;;;;;7.43;4.28;;;;;;;18.06;86.32;98225.59;5092329;28;20012;-80
2022/06/19 00:44:15;;;;;;;7.57;4.90;;;;;;;18.03;86.80;98227.09;5092586;28;20034;-80
2022/06/19 00:46:51;;;;;;;7.53;4.30;;;;;;;18.09;86.44;98222.97;5092642;28;20032;-78
2022/06/19 00:49:36;;;;;;;5.88;4.70;;;;;;;17.99;87.05;98217.84;5092517;28;20056;-79
2022/06/19 00:52:06;;;;;;;6.38;4.43;;;;;;;17.93;87.61;98213.66;5092757;28;20081;-79
2022/06/19 00:54:37;;;;;;;8.25;4.65;;;;;;;17.88;88.37;98211.09;5093182;28;20039;-81
2022/06/19 00:57:03;;;;;;;6.93;4.57;;;;;;;17.93;87.77;98216.41;5094987;28;20047;-81
2022/06/19 00:59:29;;;;;;;7.00;4.45;;;;;;;17.98;87.05;98205.13;5094005;28;20028;-81
2022/06/19 01:01:56;;;;;;;7.78;4.20;;;;;;;17.90;87.72;98214.31;5093661;28;20598;-81
2022/06/19 01:04:29;;;;;;;8.40;4.30;;;;;;;17.83;88.01;98207.69;5093887;28;20062;-80
2022/06/19 01:06:54;;;;;;;6.70;4.40;;;;;;;17.89;88.04;98217.41;5092713;28;20028;-81
2022/06/19 01:09:20;;;;;;;7.07;4.20;;;;;;;17.85;88.08;98210.94;5091762;28;20038;-81
2022/06/19 01:11:46;;;;;;;6.32;4.47;;;;;;;17.86;87.92;98209.78;5091981;28;20048;-78
2022/06/19 01:14:20;;;;;;;7.05;4.47;;;;;;;17.95;87.79;98205.81;5090553;28;20056;-82
2022/06/19 01:16:46;;;;;;;9.60;5.22;;;;;;;17.96;87.58;98207.44;5092859;28;20024;-79
2022/06/19 01:19:19;;;;;;;5.88;4.53;;;;;;;18.07;87.53;98205.88;5093410;28;20118;-82
2022/06/19 01:21:51;;;;;;;9.32;4.68;;;;;;;18.03;86.99;98206.91;5093331;28;20028;-81
2022/06/19 01:24:50;;;;;;;7.05;5.35;;;;;;;18.09;87.27;98200.81;5092832;28;20027;-81
2022/06/19 01:30:04;;;;;;;8.07;4.53;;;;;;;17.95;88.97;98211.34;5092654;28;20043;-81
2022/06/19 01:32:31;;;;;;;7.57;4.50;;;;;;;17.89;89.71;98207.16;5094073;28;20020;-81
2022/06/19 01:34:57;;;;;;;6.95;4.53;;;;;;;17.91;88.95;98199.34;5092906;28;20020;-80
2022/06/19 01:37:27;;;;;;;6.80;4.43;;;;;;;17.78;89.23;98194.88;5076358;28;20028;-82
2022/06/19 01:39:57;;;;;;;6.47;4.05;;;;;;;17.71;89.87;98189.06;5104810;28;20057;-82
2022/06/19 01:42:23;;;;;;;5.78;4.30;;;;;;;17.65;90.17;98191.22;5104704;28;20039;-81
2022/06/19 01:44:52;;;;;;;6.80;4.13;;;;;;;17.63;90.96;98189.94;5102299;28;20031;-81
2022/06/19 01:47:18;;;;;;;9.00;4.15;;;;;;;17.63;90.42;98181.66;5092471;28;20039;-80
2022/06/19 01:49:49;;;;;;;6.97;4.80;;;;;;;17.66;90.29;98192.03;5094071;28;20439;-81
2022/06/19 01:52:15;;;;;;;10.77;5.13;;;;;;;17.58;90.89;98185.41;5092496;28;20077;-80
2022/06/19 01:54:50;;;;;;;7.10;4.88;;;;;;;17.50;91.71;98182.66;5091799;28;20032;-82
2022/06/19 01:57:17;;;;;;;9.18;5.20;;;;;;;17.54;91.24;98175.31;5091969;28;20055;-81
2022/06/19 01:59:44;;;;;;;8.45;5.13;;;;;;;17.54;91.72;98176.13;5092121;28;20043;-83
2022/06/19 02:02:12;;;;;;;15.68;6.00;;;;;;;17.48;91.84;98171.09;5092318;28;20039;-80
2022/06/19 02:04:38;;;;;;;10.10;5.93;;;;;;;17.42;92.88;98169.69;5091837;28;20032;-80
2022/06/19 02:07:06;;;;;;;6.78;5.13;;;;;;;17.55;91.91;98163.13;5092104;28;20365;-79
2022/06/19 02:09:34;;;;;;;6.85;4.82;;;;;;;17.52;92.32;98169.28;5089996;28;20493;-79
2022/06/19 02:12:00;;;;;;;8.25;5.05;;;;;;;17.50;92.95;98161.34;5089935;28;20071;-79
2022/06/19 02:14:26;;;;;;;7.63;5.03;;;;;;;17.40;93.36;98155.38;5090450;28;20036;-78
2022/06/19 02:16:51;;;;;;;7.97;4.65;;;;;;;17.46;92.88;98159.56;5088952;28;20035;-77
2022/06/19 02:19:18;;;;;;;6.90;4.82;;;;;;;17.49;92.97;98164.44;5094086;28;20089;-76
2022/06/19 02:21:48;;;;;;;7.78;5.13;;;;;;;17.38;93.66;98174.28;5095394;28;20493;-77
2022/06/19 02:24:20;;;;;;;9.65;4.85;;;;;;;17.37;93.97;98167.94;5097964;28;20031;-75
2022/06/19 02:26:48;;;;;;;8.10;5.35;;;;;;;17.33;94.35;98166.16;5095355;28;20366;-78
2022/06/19 02:29:16;;;;;;;7.75;4.70;;;;;;;17.32;94.64;98170.09;5093676;28;20024;-80
2022/06/19 02:31:44;;;;;;;6.45;4.45;;;;;;;17.44;94.20;98178.47;5091075;28;20028;-79
2022/06/19 02:34:45;;;;;;;6.50;4.75;;;;;;;17.35;96.13;98169.41;5093990;28;20416;-78
2022/06/19 02:37:21;;;;;;;8.02;5.10;;;;;;;17.31;99.79;98171.22;5014796;28;20038;-79
2022/06/19 02:40:25;;;;;;;8.73;5.10;;;;;;;17.07;100.00;98174.59;5085230;28;20083;-78
2022/06/19 02:42:50;;;;;;;7.15;5.03;;;;;;;17.00;100.00;98166.84;5092205;28;20039;-80
2022/06/19 02:45:25;;;;;;;8.60;5.35;;;;;;;17.05;100.00;98172.16;5094151;28;20031;-77
2022/06/19 02:47:53;;;;;;;7.37;4.83;;;;;;;17.12;100.00;98166.13;5093834;28;20392;-77
2022/06/19 02:50:25;;;;;;;6.32;4.88;;;;;;;17.07;100.00;98161.56;5094036;28;20043;-79
2022/06/19 02:52:51;;;;;;;7.70;4.78;;;;;;;16.99;100.00;98150.56;5094149;28;20514;-78
2022/06/19 02:55:18;;;;;;;7.50;5.28;;;;;;;17.08;100.00;98154.91;5093905;28;20059;-76
2022/06/19 02:57:43;;;;;;;7.07;5.38;;;;;;;17.04;100.00;98156.72;5093991;28;20036;-78
2022/06/19 03:00:14;;;;;;;6.07;4.70;;;;;;;17.02;100.00;98156.25;5093394;28;20503;-78
2022/06/19 03:02:40;;;;;;;5.68;4.65;;;;;;;16.93;100.00;98144.41;5093519;28;20020;-76
2022/06/19 03:05:10;;;;;;;6.38;4.60;;;;;;;17.01;100.00;98159.31;5093204;28;20439;-78
2022/06/19 03:07:36;;;;;;;6.65;4.55;;;;;;;16.86;100.00;98144.13;5092743;28;20444;-77
2022/06/19 03:10:01;;;;;;;6.30;4.50;;;;;;;17.02;100.00;98147.94;5092187;28;20026;-78
2022/06/19 03:12:26;;;;;;;7.53;4.78;;;;;;;16.97;100.00;98152.84;5093068;28;20073;-77
2022/06/19 03:14:52;;;;;;;7.05;4.40;;;;;;;16.91;100.00;98152.25;5093466;28;20500;-77
2022/06/19 03:17:20;;;;;;;12.25;4.45;;;;;;;16.74;100.00;98151.47;5093645;28;20107;-77
2022/06/19 03:19:46;;;;;;;6.40;4.47;;;;;;;16.83;100.00;98142.00;5093312;28;20504;-78
2022/06/19 03:22:12;;;;;;;5.68;4.32;;;;;;;16.78;100.00;98133.91;5089480;28;20031;-77
2022/06/19 03:24:38;;;;;;;8.60;4.82;;;;;;;16.98;100.00;98148.94;5083257;28;20051;-77
2022/06/19 03:27:05;;;;;;;5.68;4.22;;;;;;;17.00;100.00;98141.97;5093157;28;20050;-78
2022/06/19 03:29:30;;;;;;;7.05;4.78;;;;;;;17.23;100.00;98144.44;5073210;28;20067;-79
2022/06/19 03:31:56;;;;;;;8.40;4.93;;;;;;;17.52;97.45;98136.09;5072695;28;20512;-79
2022/06/19 03:34:21;;;;;;;10.18;4.80;;;;;;;17.99;92.68;98142.28;5072413;28;20066;-79
2022/06/19 03:36:46;;;;;;;5.95;4.90;;;;;;;18.43;89.44;98147.06;5071612;28;20066;-78
2022/06/19 03:39:12;;;;;;;6.20;4.20;;;;;;;18.75;86.39;98137.13;5071312;28;20508;-76
2022/06/19 03:41:38;;;;;;;6.60;4.35;;;;;;;19.14;83.30;98139.22;5088999;28;20571;-77
2022/06/19 03:44:05;;;;;;;6.82;4.40;;;;;;;19.26;82.21;98133.69;5092627;28;20024;-77
2022/06/19 03:46:30;;;;;;;7.13;4.35;;;;;;;20.01;78.13;98145.16;5092591;28;20556;-76
2022/06/19 03:48:55;;;;;;;8.07;4.30;;;;;;;20.88;74.19;98159.09;5092493;28;20111;-76
2022/06/19 03:51:25;;;;;;;7.60;4.20;;;;;;;21.46;70.56;98148.25;5092202;28;20023;-77
2022/06/19 03:53:54;;;;;;;6.47;4.10;;;;;;;21.79;68.18;98146.66;5092862;28;20078;-78
2022/06/19 03:56:25;;;;;;;6.63;4.47;;;;;;;22.14;66.37;98155.00;5092297;28;20081;-77
2022/06/19 03:58:51;;;;;;;8.07;4.90;;;;;;;22.59;64.20;98153.47;5092232;28;20064;-78
2022/06/19 04:01:26;;;;;;;7.45;4.30;;;;;;;22.82;62.80;98151.56;5091199;28;20031;-77
2022/06/19 04:03:54;;;;;;;5.88;4.40;;;;;;;22.67;63.71;98152.50;5092558;28;20055;-77
2022/06/19 04:06:24;;;;;;;5.30;4.28;;;;;;;23.36;60.52;98156.91;5090671;28;20035;-76
2022/06/19 04:08:50;;;;;;;8.25;4.50;;;;;;;23.01;61.76;98154.31;5090717;28;20389;-77
2022/06/19 04:11:17;;;;;;;5.47;4.25;;;;;;;23.57;59.43;98154.47;5090547;28;20044;-74
2022/06/19 04:13:43;;;;;;;5.95;4.20;;;;;;;24.00;58.29;98155.88;5090900;28;20020;-78
2022/06/19 04:16:14;;;;;;;5.60;4.10;;;;;;;24.77;55.36;98155.25;5092056;28;20094;-77
2022/06/19 04:18:40;;;;;;;4.47;3.75;;;;;;;23.80;57.26;98134.84;5071402;28;20405;-75
2022/06/19 04:21:10;;;;;;;6.57;4.43;;;;;;;22.46;62.38;98155.63;5071442;28;20032;-77
2022/06/19 04:23:35;;;;;;;5.90;4.00;;;;;;;22.15;64.63;98151.03;5080774;28;20025;-72
2022/06/19 04:26:01;;;;;;;5.10;4.00;;;;;;;22.64;63.13;98156.00;5079820;28;20538;-73
2022/06/19 04:28:26;;;;;;;6.53;4.13;;;;;;;22.17;64.55;98154.28;5071190;28;20064;-73
2022/06/19 04:30:52;;;;;;;8.38;4.20;;;;;;;21.16;68.70;98137.59;5089518;28;20034;-73
2022/06/19 04:33:20;;;;;;;6.05;4.88;;;;;;;20.52;72.31;98148.19;5091551;28;20110;-74
2022/06/19 04:35:47;;;;;;;6.53;4.68;;;;;;;20.21;75.01;98149.69;5091799;28;20484;-72
2022/06/19 04:38:13;;;;;;;8.25;4.38;;;;;;;19.91;76.52;98147.59;5093725;28;20055;-73
2022/06/19 04:40:38;;;;;;;5.68;4.20;;;;;;;19.92;76.92;98149.25;5090953;28;20496;-72
2022/06/19 04:43:05;;;;;;;5.72;4.75;;;;;;;20.04;76.64;98147.22;5072663;28;20115;-73
2022/06/19 04:45:31;;;;;;;9.73;5.05;;;;;;;19.90;77.80;98146.78;5070963;28;20040;-73
2022/06/19 04:47:57;;;;;;;6.63;4.45;;;;;;;20.32;76.40;98147.25;5070890;28;20839;-72
2022/06/19 04:50:22;;;;;;;7.88;4.82;;;;;;;20.51;74.99;98149.38;5071081;28;20111;-74
2022/06/19 04:52:48;;;;;;;5.88;4.10;;;;;;;20.57;74.14;98154.31;5069551;28;20017;-72
2022/06/19 04:55:14;;;;;;;9.38;4.63;;;;;;;20.82;73.22;98163.31;5070792;28;20043;-73
2022/06/19 04:57:40;;;;;;;6.63;4.65;;;;;;;21.07;72.06;98162.00;5069683;28;20020;-73
2022/06/19 05:00:08;;;;;;;8.30;4.43;;;;;;;20.97;71.50;98167.28;5069621;28;20027;-72
2022/06/19 05:02:33;;;;;;;7.63;4.95;;;;;;;20.83;71.87;98162.16;5070718;28;20033;-72
2022/06/19 05:04:58;;;;;;;5.60;4.65;;;;;;;20.59;73.31;98156.72;5069271;28;20370;-73
2022/06/19 05:07:24;;;;;;;6.43;5.03;;;;;;;20.61;73.15;98160.75;5070543;28;20108;-73
2022/06/19 05:09:50;;;;;;;7.38;4.70;;;;;;;20.68;72.94;98163.75;5070735;28;20033;-73
2022/06/19 05:12:15;;;;;;;8.95;5.18;;;;;;;20.47;73.63;98159.56;5070476;28;20048;-73
2022/06/19 05:14:41;;;;;;;7.50;4.93;;;;;;;20.69;72.86;98150.66;5070623;28;20032;-73
2022/06/19 05:17:06;;;;;;;6.07;4.70;;;;;;;20.78;72.05;98165.19;5070631;28;20055;-74
2022/06/19 05:19:31;;;;;;;10.05;5.45;;;;;;;20.81;72.24;98164.47;5088304;28;20047;-73
2022/06/19 05:22:00;;;;;;;7.80;5.38;;;;;;;20.84;71.71;98161.78;5090041;28;20024;-73
2022/06/19 05:24:26;;;;;;;9.43;5.15;;;;;;;20.73;72.73;98157.94;5091921;28;20028;-73
2022/06/19 05:26:52;;;;;;;9.38;5.30;;;;;;;20.69;72.76;98162.59;5089934;28;20024;-73
2022/06/19 05:29:18;;;;;;;7.75;5.07;;;;;;;20.87;72.34;98156.66;5090616;28;20027;-73
2022/06/19 05:31:43;;;;;;;7.70;5.15;;;;;;;21.09;71.44;98154.13;5090721;28;20032;-73
2022/06/19 05:34:09;;;;;;;11.07;5.53;;;;;;;21.27;70.81;98155.34;5089119;28;20028;-73
2022/06/19 05:36:34;;;;;;;7.88;5.00;;;;;;;21.34;70.73;98155.53;5088939;28;20028;-73
2022/06/19 05:39:00;;;;;;;6.45;5.40;;;;;;;21.31;70.36;98156.25;5090635;28;20032;-73
2022/06/19 05:41:28;;;;;;;7.43;5.05;;;;;;;21.22;70.30;98147.28;5090425;28;20024;-73
2022/06/19 05:43:53;;;;;;;9.52;5.07;;;;;;;21.36;70.86;98160.75;5090568;28;20027;-73
2022/06/19 05:46:20;;;;;;;8.18;4.93;;;;;;;21.58;69.93;98162.06;5090428;28;20024;-74
2022/06/19 05:48:46;;;;;;;7.93;5.28;;;;;;;21.81;68.73;98160.19;5090241;28;20031;-73
2022/06/19 05:51:16;;;;;;;9.93;5.22;;;;;;;21.63;69.15;98156.22;5090435;28;20528;-72
2022/06/19 05:53:45;;;;;;;6.80;5.00;;;;;;;21.05;70.87;98164.31;5093450;28;20070;-73
2022/06/19 05:56:11;;;;;;;7.57;5.30;;;;;;;21.22;70.98;98169.56;5094431;28;20063;-72
2022/06/19 05:58:37;;;;;;;7.65;5.18;;;;;;;21.37;70.59;98173.47;5094411;28;20561;-74
2022/06/19 06:01:04;;;;;;;8.75;4.63;;;;;;;21.62;69.05;98172.09;5094392;28;20053;-73
2022/06/19 06:03:30;;;;;;;6.88;4.72;;;;;;;21.90;67.55;98179.53;5094311;28;20036;-74
2022/06/19 06:06:05;;;;;;;6.68;4.78;;;;;;;21.85;67.90;98175.03;5094302;28;20028;-73
2022/06/19 06:08:33;;;;;;;8.27;5.43;;;;;;;22.14;66.64;98171.72;5092866;28;20070;-73
2022/06/19 06:10:59;;;;;;;7.88;4.95;;;;;;;22.35;65.73;98172.16;5093970;28;20134;-73
2022/06/19 06:13:25;;;;;;;6.97;5.07;;;;;;;22.59;65.32;98178.59;5094077;28;20541;-74
2022/06/19 06:15:51;;;;;;;10.25;5.10;;;;;;;22.89;63.27;98174.03;5094166;28;20028;-73
2022/06/19 06:18:17;;;;;;;9.23;5.28;;;;;;;23.15;62.56;98167.72;5090603;28;20017;-76
2022/06/19 06:20:43;;;;;;;5.70;4.70;;;;;;;23.76;60.15;98156.34;5081051;28;20040;-78
2022/06/19 06:23:09;;;;;;;8.05;5.03;;;;;;;23.99;58.97;98159.88;5079418;28;20436;-75
2022/06/19 06:25:35;;;;;;;5.80;4.05;;;;;;;24.45;57.44;98164.09;5079262;28;20051;-79
2022/06/19 06:28:01;;;;;;;9.63;4.90;;;;;;;24.66;56.52;98166.31;5076181;28;20028;-77
2022/06/19 06:30:26;;;;;;;5.45;4.40;;;;;;;25.56;53.69;98164.81;5074486;28;20027;-79
2022/06/19 06:32:51;;;;;;;8.63;4.85;;;;;;;24.55;55.87;98159.00;5072284;28;20116;-75
2022/06/19 06:35:17;;;;;;;7.53;5.13;;;;;;;24.95;54.92;98161.88;5077866;28;20024;-75
2022/06/19 06:37:42;;;;;;;6.30;4.53;;;;;;;24.71;55.70;98162.38;5093788;28;21498;-74
2022/06/19 06:40:09;;;;;;;7.50;4.18;;;;;;;24.13;56.99;98157.28;5092814;28;20028;-77
2022/06/19 06:42:35;;;;;;;5.72;4.35;;;;;;;24.28;56.66;98167.47;5092741;28;20493;-79
2022/06/19 06:45:01;;;;;;;38.63;22.58;;;;;;;24.50;56.06;98157.34;5098362;28;20095;-80
2022/06/19 06:47:26;;;;;;;11.60;7.30;;;;;;;23.99;56.75;98163.47;5115337;28;20024;-81
2022/06/19 06:49:52;;;;;;;9.00;4.55;;;;;;;24.14;56.38;98160.91;5102141;28;20032;-82
2022/06/19 06:52:17;;;;;;;7.70;4.35;;;;;;;23.98;57.20;98158.25;5099599;28;20066;-80
2022/06/19 06:54:43;;;;;;;7.63;4.55;;;;;;;23.77;57.64;98150.41;5102113;28;20028;-79
2022/06/19 06:57:08;;;;;;;7.78;4.20;;;;;;;24.04;56.81;98148.34;5102182;28;20028;-85
2022/06/19 06:59:35;;;;;;;4.72;3.60;;;;;;;23.51;56.60;98144.81;5099513;28;20374;-79
2022/06/19 07:02:01;;;;;;;6.72;4.03;;;;;;;24.07;55.72;98149.59;5098552;28;20024;-79
2022/06/19 07:04:26;;;;;;;4.40;3.38;;;;;;;24.32;54.43;98157.16;5105573;28;20032;-76
2022/06/19 07:06:51;;;;;;;4.30;3.40;;;;;;;24.45;53.60;98149.31;5094114;28;20107;-78
2022/06/19 07:09:18;;;;;;;5.20;3.42;;;;;;;24.66;53.04;98149.53;5093277;28;20028;-80
2022/06/19 07:11:46;;;;;;;7.22;4.22;;;;;;;24.58;54.24;98152.66;5091859;28;20082;-76
2022/06/19 07:14:12;;;;;;;5.63;3.92;;;;;;;24.31;55.44;98149.94;5090607;28;20122;-79
2022/06/19 07:16:38;;;;;;;5.90;3.90;;;;;;;23.69;55.90;98145.06;5111211;28;20392;-78
2022/06/19 07:19:04;;;;;;;6.72;3.90;;;;;;;24.04;55.98;98145.56;5113031;28;20106;-81
2022/06/19 07:21:29;;;;;;;6.47;4.10;;;;;;;24.28;55.35;98150.69;5114301;28;20015;-81
2022/06/19 07:23:55;;;;;;;5.90;3.80;;;;;;;24.47;54.73;98141.31;5119417;28;20054;-79
2022/06/19 07:26:22;;;;;;;6.97;4.10;;;;;;;24.61;54.37;98151.88;5114109;28;20024;-80
2022/06/19 07:28:48;;;;;;;8.55;4.40;;;;;;;24.51;54.69;98142.19;5114874;28;20039;-77
2022/06/19 07:31:14;;;;;;;4.93;3.75;;;;;;;24.76;52.39;98139.66;5090661;28;20027;-78
2022/06/19 07:33:40;;;;;;;6.65;4.10;;;;;;;25.07;51.34;98147.56;5088556;28;20140;-81
2022/06/19 07:36:08;;;;;;;7.95;3.67;;;;;;;25.01;51.25;98143.53;5089620;28;20028;-79
2022/06/19 07:38:34;;;;;;;5.88;4.22;;;;;;;24.99;51.64;98143.13;5086276;28;20392;-79
2022/06/19 07:41:00;;;;;;;5.28;4.00;;;;;;;24.99;51.06;98137.53;5090170;28;20552;-78
2022/06/19 07:43:26;;;;;;;4.15;3.50;;;;;;;25.45;50.83;98138.72;5093000;28;21673;-79
2022/06/19 07:45:52;;;;;;;4.40;3.50;;;;;;;25.16;50.14;98130.44;5093804;28;20032;-79
2022/06/19 07:51:01;;;;;;;7.65;4.30;;;;;;;26.05;49.18;98129.91;5089697;28;20035;-74
2022/06/19 07:53:27;;;;;;;5.55;3.75;;;;;;;25.78;48.26;98126.53;5088339;28;20028;-75
2022/06/19 07:55:52;;;;;;;4.85;3.65;;;;;;;25.99;47.34;98121.06;5092637;28;20553;-78
2022/06/19 07:58:17;;;;;;;5.43;3.53;;;;;;;26.43;45.10;98122.88;5086868;28;20024;-77
2022/06/19 08:00:43;;;;;;;4.72;3.70;;;;;;;26.67;44.59;98124.94;5088982;28;20449;-81
2022/06/19 08:03:08;;;;;;;5.10;3.53;;;;;;;26.61;44.56;98124.53;5087417;28;20040;-78
2022/06/19 08:05:36;;;;;;;5.55;3.58;;;;;;;26.43;44.85;98123.69;5088181;28;20031;-78
2022/06/19 08:08:13;;;;;;;5.72;3.50;;;;;;;26.41;44.83;98120.47;5090337;28;20028;-75
2022/06/19 08:10:42;;;;;;;7.03;3.72;;;;;;;26.34;44.98;98111.22;5088391;28;20093;-79
2022/06/19 08:13:08;;;;;;;5.60;3.85;;;;;;;26.54;44.11;98115.28;5089380;28;20083;-77
2022/06/19 08:15:34;;;;;;;4.88;3.80;;;;;;;26.33;44.98;98118.84;5088142;28;20123;-77
2022/06/19 08:18:00;;;;;;;4.60;3.45;;;;;;;26.35;44.90;98115.63;5090167;28;20032;-81
2022/06/19 08:20:29;;;;;;;5.07;3.55;;;;;;;26.55;44.23;98114.09;5086980;28;20059;-78
2022/06/19 08:22:54;;;;;;;4.35;3.33;;;;;;;26.42;44.28;98112.84;5086813;28;20067;-77
2022/06/19 08:25:22;;;;;;;3.78;3.17;;;;;;;25.64;45.93;98097.63;5091011;28;20043;-78
2022/06/19 08:27:49;;;;;;;4.72;3.55;;;;;;;25.79;46.17;98100.13;5089024;28;20032;-76
2022/06/19 08:30:36;;;;;;;4.80;3.60;;;;;;;25.80;45.01;98100.94;5082656;28;20028;-78
2022/06/19 08:33:05;;;;;;;5.15;3.40;;;;;;;26.35;44.14;98105.19;5090152;28;20019;-79
2022/06/19 08:35:33;;;;;;;4.72;3.22;;;;;;;26.94;43.05;98098.13;5088323;28;20055;-77
2022/06/19 08:38:06;;;;;;;5.25;3.60;;;;;;;27.63;41.99;98111.78;5082917;28;20024;-76
2022/06/19 08:40:52;;;;;;;4.35;3.65;;;;;;;28.17;41.46;98107.66;5089512;28;20039;-77
2022/06/19 08:43:41;;;;;;;4.80;3.38;;;;;;;26.83;44.14;98107.75;5090227;28;20035;-77
2022/06/19 08:46:41;;;;;;;4.18;3.50;;;;;;;26.32;45.74;98094.78;5093901;28;20051;-82
2022/06/19 08:49:21;;;;;;;5.55;3.58;;;;;;;26.35;45.28;98096.78;5086215;28;20024;-78
2022/06/19 08:52:10;;;;;;;4.28;3.58;;;;;;;26.90;44.23;98097.34;5090601;28;20406;-77
2022/06/19 08:54:50;;;;;;;5.38;3.35;;;;;;;27.17;43.76;98094.94;5088530;28;20032;-72
2022/06/19 08:57:25;;;;;;;8.10;3.63;;;;;;;27.96;42.32;98083.19;5085758;28;20036;-77
2022/06/19 09:00:09;;;;;;;5.45;3.80;;;;;;;28.09;42.73;98078.75;5085683;28;20449;-76
2022/06/19 09:03:05;;;;;;;4.65;3.65;;;;;;;28.55;42.01;98084.16;5083680;28;20510;-75
2022/06/19 09:05:45;;;;;;;7.05;3.72;;;;;;;27.98;42.48;98091.22;5087578;28;20129;-77
2022/06/19 09:08:25;;;;;;;4.82;3.30;;;;;;;27.66;42.34;98088.47;5096016;28;20012;-77
2022/06/19 09:10:55;;;;;;;4.32;3.00;;;;;;;27.84;41.86;98091.28;5085775;28;20052;-73
2022/06/19 09:13:47;;;;;;;7.22;4.10;;;;;;;27.74;42.95;98094.91;5105088;28;20621;-75
2022/06/19 09:16:23;;;;;;;4.40;3.50;;;;;;;27.85;42.92;98082.41;5087254;28;20483;-84
2022/06/19 09:18:58;;;;;;;4.63;3.70;;;;;;;27.46;43.88;98096.56;5099701;28;20032;-74
2022/06/19 09:21:45;;;;;;;4.50;3.70;;;;;;;27.88;43.16;98083.63;5108303;28;20031;-78
2022/06/19 09:24:10;;;;;;;4.75;3.45;;;;;;;27.78;43.02;98085.25;5083739;28;20050;-74
2022/06/19 09:26:47;;;;;;;8.85;3.88;;;;;;;27.46;43.03;98073.28;5087725;28;20036;-75
2022/06/19 09:29:28;;;;;;;4.20;3.40;;;;;;;27.51;42.27;98072.84;5087761;28;20507;-77
2022/06/19 09:32:10;;;;;;;5.65;3.60;;;;;;;28.27;41.53;98066.59;5096930;28;20036;-76
2022/06/19 09:34:42;;;;;;;5.53;3.25;;;;;;;28.46;40.48;98069.72;5096030;28;20077;-80
2022/06/19 09:37:07;;;;;;;5.75;3.38;;;;;;;29.18;39.11;98068.03;5090050;28;20044;-75
2022/06/19 09:39:53;;;;;;;4.00;3.22;;;;;;;29.06;38.80;98063.72;5091039;28;20028;-78
2022/06/19 09:42:33;;;;;;;4.28;3.63;;;;;;;28.50;39.69;98059.25;5086494;28;20051;-78
2022/06/19 09:45:18;;;;;;;5.30;3.17;;;;;;;28.67;39.86;98040.66;5090694;28;20492;-80
2022/06/19 09:47:56;;;;;;;6.32;2.97;;;;;;;29.03;38.33;98039.19;5088251;28;20125;-74
2022/06/19 09:50:29;;;;;;;3.70;2.92;;;;;;;28.29;39.66;98050.13;5087720;28;20036;-74
2022/06/19 09:53:04;;;;;;;8.18;3.42;;;;;;;28.52;39.22;98047.56;5091682;28;20118;-78
2022/06/19 09:55:41;;;;;;;4.53;3.00;;;;;;;27.27;40.78;98037.13;5095655;28;20513;-74
2022/06/19 09:58:14;;;;;;;4.68;3.40;;;;;;;28.02;40.09;98028.09;5083970;28;20108;-74
2022/06/19 10:00:43;;;;;;;4.07;2.90;;;;;;;28.60;38.65;98035.06;5091697;28;20024;-76
2022/06/19 10:03:46;;;;;;;3.22;2.80;;;;;;;28.84;37.94;98030.47;5091776;28;20080;-81
2022/06/19 10:06:34;;;;;;;8.55;2.80;;;;;;;27.99;40.10;98028.94;5064670;28;20055;-78
2022/06/19 10:09:14;;;;;;;3.70;2.65;;;;;;;28.59;39.03;98017.34;5083368;28;20146;-75
2022/06/19 10:11:41;;;;;;;3.47;2.97;;;;;;;27.86;40.31;98018.53;5093044;28;20635;-79
2022/06/19 10:14:34;;;;;;;5.43;2.88;;;;;;;28.31;39.31;98020.34;5089432;28;20034;-76
2022/06/19 10:17:25;;;;;;;4.43;2.78;;;;;;;28.74;39.07;98011.63;5090828;28;20039;-74
2022/06/19 10:19:58;;;;;;;4.00;2.92;;;;;;;28.48;39.37;98002.53;5110000;28;20024;-77
2022/06/19 10:22:42;;;;;;;4.00;3.10;;;;;;;28.35;39.14;97992.19;5087853;28;20753;-73
2022/06/19 10:25:19;;;;;;;4.38;2.95;;;;;;;28.39;38.89;97995.75;5085240;28;20495;-72
2022/06/19 10:28:15;;;;;;;6.13;3.05;;;;;;;28.30;38.49;97990.59;5084401;28;20074;-75
2022/06/19 10:30:49;;;;;;;4.55;3.08;;;;;;;28.71;37.99;97990.75;5083076;28;20083;-74
2022/06/19 10:33:20;;;;;;;3.90;2.92;;;;;;;28.73;37.18;97985.47;5085846;28;20039;-74
2022/06/19 10:36:14;;;;;;;4.65;2.65;;;;;;;28.65;37.24;97990.38;5083302;28;20028;-75
2022/06/19 10:39:10;;;;;;;3.20;2.47;;;;;;;27.73;38.63;97992.06;5090751;28;20047;-74
2022/06/19 10:42:06;;;;;;;6.57;2.55;;;;;;;28.33;37.42;97995.41;5087825;28;20028;-74
2022/06/19 10:44:46;;;;;;;;;;;;;;;28.74;37.17;97997.56;5091673;28;20032;-79
2022/06/19 10:47:45;;;;;;;3.92;2.90;;;;;;;28.99;36.76;97987.69;5087297;28;20582;-73
2022/06/19 10:50:49;;;;;;;5.32;2.40;;;;;;;29.70;35.70;97987.75;5090090;28;20069;-74
2022/06/19 10:53:40;;;;;;;3.60;2.42;;;;;;;29.88;35.52;97979.13;5050972;28;20047;-76
2022/06/19 10:56:23;;;;;;;4.32;3.10;;;;;;;30.21;35.37;97983.88;5112328;27;20499;-74
2022/06/19 10:58:49;;;;;;;6.97;2.80;;;;;;;30.36;34.42;97987.28;5087438;28;20042;-75
2022/06/19 11:04:10;;;;;;;5.32;2.63;;;;;;;29.42;35.78;97957.06;5090461;28;20081;-73
2022/06/19 11:06:58;;;;;;;4.53;3.15;;;;;;;29.27;36.65;97954.81;5090166;28;20051;-73
2022/06/19 11:09:29;;;;;;;3.83;2.80;;;;;;;29.46;36.06;97948.56;5087817;28;20024;-73
2022/06/19 11:12:00;;;;;;;4.10;2.63;;;;;;;29.75;35.66;97953.44;5089499;28;21286;-74
2022/06/19 11:14:26;;;;;;;4.85;2.67;;;;;;;29.80;35.77;97957.00;5096529;28;20028;-74
2022/06/19 11:16:56;;;;;;;3.47;2.77;;;;;;;29.66;35.42;97950.34;5089883;28;20085;-73
2022/06/19 11:19:40;;;;;;;5.63;2.65;;;;;;;29.22;36.37;97942.78;5087788;28;20272;-76
2022/06/19 11:22:41;;;;;;;3.75;2.80;;;;;;;29.08;36.53;97933.66;5089814;28;20028;-73
2022/06/19 11:25:21;;;;;;;5.70;2.53;;;;;;;29.22;36.70;97936.34;5088908;28;20410;-74
2022/06/19 11:27:59;;;;;;;3.85;2.88;;;;;;;29.24;36.28;97933.91;5087616;28;20058;-73
2022/06/19 11:30:36;;;;;;;6.68;3.38;;;;;;;29.17;35.45;97926.31;5090663;28;20032;-73
2022/06/19 11:33:07;;;;;;;3.78;2.90;;;;;;;29.64;35.07;97915.28;5088613;28;20028;-76
2022/06/19 11:35:55;;;;;;;3.92;2.95;;;;;;;29.68;35.36;97913.25;5090426;28;20114;-74
2022/06/19 11:38:45;;;;;;;4.97;3.50;;;;;;;29.44;35.83;97909.53;5088987;28;20121;-71
2022/06/19 11:41:18;;;;;;;5.30;2.78;;;;;;;29.33;36.00;97908.84;5090033;28;20027;-76
2022/06/19 11:43:43;;;;;;;5.15;3.17;;;;;;;29.47;36.20;97902.25;5092993;28;20028;-73
2022/06/19 11:46:26;;;;;;;5.47;3.17;;;;;;;29.87;35.78;97892.06;5085870;28;20027;-72
2022/06/19 11:48:52;;;;;;;3.92;2.80;;;;;;;30.15;35.15;97886.00;5091143;28;20495;-73
2022/06/19 11:51:23;;;;;;;4.55;2.95;;;;;;;29.69;35.26;97873.34;5086885;28;20071;-76
2022/06/19 11:53:55;;;;;;;5.03;3.20;;;;;;;29.75;35.59;97880.09;5085062;28;20039;-74
2022/06/19 11:56:36;;;;;;;4.95;3.10;;;;;;;29.61;35.83;97876.66;5087023;28;20401;-71